LFLB Airport Information

Runway Information
Runway 18 Length 6628 ft width 148 ft
Elevation 769 ft Threshold 755 ft Heading 176
Runway 36 Length 6628 ft Width 148 ft
Elevation 778 ft Threshold 460 ft Heading 356
Airport Frequencies
Type APP Name CHAMBERY A Frequency 123.7 MHZ
Type ATIS Name CHAMBERY A Frequency 124.575 MHZ
Type TWR Name CHAMBERY T Frequency 118.3 MHZ
Airport Navaids
Airport Weather Information & NOTAM
ADDS - METARS form results

(0759 UTC 22 May 2018)
 
METAR text: LFLB 220730Z AUTO VRB03KT CAVOK 17/13 Q1013 NOSIG
Conditions at: LFLB (CHAMBERY/AIX BAI, FR) observed 0730 UTC 22 May 2018
Temperature: 17.0°C (63°F)
Dewpoint: 13.0°C (55°F) [RH = 77%]
Pressure (altimeter): 29.91 inches Hg (1013.0 mb)
Winds: variable direction winds at 3 MPH (3 knots; 1.6 m/s)
Visibility: 6 or more miles (10+ km)
Ceiling: ceiling and visibility are OK
Clouds: unknown
Weather: no significant weather observed at this time

METAR text: LFLB 220700Z AUTO 15004KT 130V200 CAVOK 16/13 Q1013 NOSIG
Conditions at: LFLB (CHAMBERY/AIX BAI, FR) observed 0700 UTC 22 May 2018
Temperature: 16.0°C (61°F)
Dewpoint: 13.0°C (55°F) [RH = 82%]
Pressure (altimeter): 29.91 inches Hg (1013.0 mb)
Winds: from the SSE (150 degrees) at 5 MPH (4 knots; 2.1 m/s)
Visibility: 6 or more miles (10+ km)
Ceiling: ceiling and visibility are OK
Clouds: unknown
Weather: no significant weather observed at this time